Terminal Aerodrome Forecast
Issued by NWS Grand Junction, CO

Home | Current Version | Previous Version | Text Only | Print | Product List | Glossary On
Versions: 1 2 3 4 5 6 7 8 9 10 11 12 13 14 15
000
FTUS45 KGJT 242346
TAFGJT
TAF
KGJT 242346Z 2500/2524 09006KT P6SM VCTS BKN120CB
     FM250400 08006KT P6SM SCT120
     FM251600 14004KT P6SM SCT250
     FM251900 24008KT P6SM VCTS BKN150CB
     FM252100 24010KT P6SM VCTS BKN150CB=

USA.gov is the U.S. government's official web portal to all federal, state and local government web resources and services.